sensor_id;sensor_type;location;lat;lon;timestamp;pressure;altitude;pressure_sealevel;temperature;humidity
68994;BME280;56054;50.968;5.816;2024-03-17T00:01:45;100849.31;;;4.13;100.00
68994;BME280;56054;50.968;5.816;2024-03-17T00:04:52;100843.03;;;4.19;100.00
68994;BME280;56054;50.968;5.816;2024-03-17T00:07:59;100835.81;;;4.15;100.00
68994;BME280;56054;50.968;5.816;2024-03-17T00:11:06;100835.19;;;4.18;100.00
68994;BME280;56054;50.968;5.816;2024-03-17T00:14:13;100839.72;;;4.20;100.00
68994;BME280;56054;50.968;5.816;2024-03-17T00:17:20;100835.38;;;4.29;100.00
68994;BME280;56054;50.968;5.816;2024-03-17T00:20:27;100824.06;;;4.27;100.00
68994;BME280;56054;50.968;5.816;2024-03-17T00:23:34;100820.91;;;4.21;100.00
68994;BME280;56054;50.968;5.816;2024-03-17T00:26:41;100825.59;;;4.25;100.00
68994;BME280;56054;50.968;5.816;2024-03-17T00:29:48;100819.19;;;4.31;100.00
68994;BME280;56054;50.968;5.816;2024-03-17T00:32:55;100814.72;;;4.19;100.00
68994;BME280;56054;50.968;5.816;2024-03-17T00:36:02;100807.53;;;4.15;100.00
68994;BME280;56054;50.968;5.816;2024-03-17T00:39:09;100813.63;;;4.07;100.00
68994;BME280;56054;50.968;5.816;2024-03-17T00:42:16;100812.69;;;4.15;100.00
68994;BME280;56054;50.968;5.816;2024-03-17T00:45:23;100803.66;;;4.10;100.00
68994;BME280;56054;50.968;5.816;2024-03-17T00:48:30;100804.69;;;4.12;100.00
68994;BME280;56054;50.968;5.816;2024-03-17T00:51:37;100791.53;;;4.09;100.00
68994;BME280;56054;50.968;5.816;2024-03-17T00:54:46;100796.97;;;4.12;100.00
68994;BME280;56054;50.968;5.816;2024-03-17T00:57:53;100794.09;;;4.09;100.00
68994;BME280;56054;50.968;5.816;2024-03-17T01:01:00;100797.09;;;4.14;100.00
68994;BME280;56054;50.968;5.816;2024-03-17T01:04:07;100794.47;;;4.03;100.00
68994;BME280;56054;50.968;5.816;2024-03-17T01:07:14;100790.22;;;4.04;100.00
68994;BME280;56054;50.968;5.816;2024-03-17T01:10:21;100786.41;;;4.09;100.00
68994;BME280;56054;50.968;5.816;2024-03-17T01:13:28;100779.41;;;3.98;100.00
68994;BME280;56054;50.968;5.816;2024-03-17T01:16:35;100779.94;;;3.85;100.00
68994;BME280;56054;50.968;5.816;2024-03-17T01:19:42;100773.00;;;4.03;100.00
68994;BME280;56054;50.968;5.816;2024-03-17T01:22:49;100774.97;;;3.86;100.00
68994;BME280;56054;50.968;5.816;2024-03-17T01:25:56;100762.59;;;3.82;100.00
68994;BME280;56054;50.968;5.816;2024-03-17T01:29:03;100763.50;;;3.83;100.00
68994;BME280;56054;50.968;5.816;2024-03-17T01:32:10;100765.50;;;3.96;100.00
68994;BME280;56054;50.968;5.816;2024-03-17T01:35:17;100766.19;;;3.84;100.00
68994;BME280;56054;50.968;5.816;2024-03-17T01:38:24;100755.84;;;3.93;100.00
68994;BME280;56054;50.968;5.816;2024-03-17T01:41:31;100766.19;;;3.84;100.00
68994;BME280;56054;50.968;5.816;2024-03-17T01:44:38;100758.44;;;3.74;100.00
68994;BME280;56054;50.968;5.816;2024-03-17T01:47:45;100754.34;;;3.76;100.00
68994;BME280;56054;50.968;5.816;2024-03-17T01:50:55;100751.63;;;3.75;100.00
68994;BME280;56054;50.968;5.816;2024-03-17T01:54:04;100748.19;;;3.84;100.00
68994;BME280;56054;50.968;5.816;2024-03-17T01:57:10;100760.00;;;3.82;100.00
68994;BME280;56054;50.968;5.816;2024-03-17T02:00:17;100753.34;;;3.84;100.00
68994;BME280;56054;50.968;5.816;2024-03-17T02:03:24;100746.41;;;3.83;100.00
68994;BME280;56054;50.968;5.816;2024-03-17T02:06:31;100754.31;;;3.95;100.00
68994;BME280;56054;50.968;5.816;2024-03-17T02:09:38;100756.81;;;3.85;100.00
68994;BME280;56054;50.968;5.816;2024-03-17T02:12:45;100753.13;;;3.92;100.00
68994;BME280;56054;50.968;5.816;2024-03-17T02:15:52;100752.03;;;3.98;100.00
68994;BME280;56054;50.968;5.816;2024-03-17T02:18:59;100748.25;;;3.95;100.00
68994;BME280;56054;50.968;5.816;2024-03-17T02:22:15;100744.53;;;3.72;100.00
68994;BME280;56054;50.968;5.816;2024-03-17T02:25:22;100754.13;;;3.83;100.00
68994;BME280;56054;50.968;5.816;2024-03-17T02:28:29;100732.03;;;3.85;100.00
68994;BME280;56054;50.968;5.816;2024-03-17T02:31:44;100735.03;;;3.71;100.00
68994;BME280;56054;50.968;5.816;2024-03-17T02:34:51;100731.25;;;3.86;100.00
68994;BME280;56054;50.968;5.816;2024-03-17T02:37:58;100732.66;;;3.83;100.00
68994;BME280;56054;50.968;5.816;2024-03-17T02:41:05;100728.63;;;3.76;100.00
68994;BME280;56054;50.968;5.816;2024-03-17T02:44:12;100735.34;;;3.84;100.00
68994;BME280;56054;50.968;5.816;2024-03-17T02:47:19;100722.44;;;3.74;100.00
68994;BME280;56054;50.968;5.816;2024-03-17T02:50:26;100726.91;;;3.85;100.00
68994;BME280;56054;50.968;5.816;2024-03-17T02:53:33;100721.88;;;3.68;100.00
68994;BME280;56054;50.968;5.816;2024-03-17T02:56:40;100726.53;;;3.72;100.00
68994;BME280;56054;50.968;5.816;2024-03-17T02:59:47;100719.81;;;3.64;100.00
68994;BME280;56054;50.968;5.816;2024-03-17T03:03:01;100711.50;;;3.67;100.00
68994;BME280;56054;50.968;5.816;2024-03-17T03:06:08;100723.03;;;3.61;100.00
68994;BME280;56054;50.968;5.816;2024-03-17T03:09:15;100725.03;;;3.74;100.00
68994;BME280;56054;50.968;5.816;2024-03-17T03:12:22;100723.28;;;3.83;100.00
68994;BME280;56054;50.968;5.816;2024-03-17T03:15:31;100700.38;;;3.76;100.00
68994;BME280;56054;50.968;5.816;2024-03-17T03:18:38;100707.88;;;3.83;100.00
68994;BME280;56054;50.968;5.816;2024-03-17T03:21:45;100718.41;;;3.86;100.00
68994;BME280;56054;50.968;5.816;2024-03-17T03:24:52;100711.00;;;3.71;100.00
68994;BME280;56054;50.968;5.816;2024-03-17T03:27:59;100708.56;;;3.72;100.00
68994;BME280;56054;50.968;5.816;2024-03-17T03:31:10;100703.75;;;3.85;100.00
68994;BME280;56054;50.968;5.816;2024-03-17T03:34:17;100708.81;;;3.75;100.00
68994;BME280;56054;50.968;5.816;2024-03-17T03:37:24;100698.28;;;3.72;100.00
68994;BME280;56054;50.968;5.816;2024-03-17T03:40:31;100684.69;;;3.73;100.00
68994;BME280;56054;50.968;5.816;2024-03-17T03:43:38;100694.13;;;3.83;100.00
68994;BME280;56054;50.968;5.816;2024-03-17T03:46:45;100687.81;;;3.90;100.00
68994;BME280;56054;50.968;5.816;2024-03-17T03:49:52;100685.47;;;3.82;100.00
68994;BME280;56054;50.968;5.816;2024-03-17T03:52:59;100687.56;;;3.86;100.00
68994;BME280;56054;50.968;5.816;2024-03-17T03:56:06;100682.78;;;3.81;100.00
68994;BME280;56054;50.968;5.816;2024-03-17T03:59:13;100682.03;;;3.92;100.00
68994;BME280;56054;50.968;5.816;2024-03-17T04:02:20;100678.19;;;3.87;100.00
68994;BME280;56054;50.968;5.816;2024-03-17T04:05:27;100674.75;;;3.97;100.00
68994;BME280;56054;50.968;5.816;2024-03-17T04:08:35;100684.34;;;3.89;100.00
68994;BME280;56054;50.968;5.816;2024-03-17T04:11:42;100679.19;;;3.79;100.00
68994;BME280;56054;50.968;5.816;2024-03-17T04:14:49;100670.25;;;3.94;100.00
68994;BME280;56054;50.968;5.816;2024-03-17T04:17:56;100667.25;;;3.90;100.00
68994;BME280;56054;50.968;5.816;2024-03-17T04:21:05;100653.88;;;3.83;100.00
68994;BME280;56054;50.968;5.816;2024-03-17T04:24:12;100667.00;;;3.86;100.00
68994;BME280;56054;50.968;5.816;2024-03-17T04:27:23;100670.47;;;3.87;100.00
68994;BME280;56054;50.968;5.816;2024-03-17T04:30:30;100664.00;;;3.82;100.00
68994;BME280;56054;50.968;5.816;2024-03-17T04:33:37;100660.81;;;3.84;100.00
68994;BME280;56054;50.968;5.816;2024-03-17T04:36:44;100664.75;;;3.71;100.00
68994;BME280;56054;50.968;5.816;2024-03-17T04:39:51;100661.88;;;3.68;100.00
68994;BME280;56054;50.968;5.816;2024-03-17T04:42:58;100654.31;;;3.69;100.00
68994;BME280;56054;50.968;5.816;2024-03-17T04:46:05;100650.34;;;3.73;100.00
68994;BME280;56054;50.968;5.816;2024-03-17T04:49:12;100653.84;;;3.73;100.00
68994;BME280;56054;50.968;5.816;2024-03-17T04:52:19;100642.94;;;3.76;100.00
68994;BME280;56054;50.968;5.816;2024-03-17T04:55:26;100640.69;;;3.70;100.00
68994;BME280;56054;50.968;5.816;2024-03-17T04:58:34;100649.66;;;3.65;100.00
68994;BME280;56054;50.968;5.816;2024-03-17T05:01:41;100638.66;;;3.66;100.00
68994;BME280;56054;50.968;5.816;2024-03-17T05:04:49;100633.50;;;3.66;100.00
68994;BME280;56054;50.968;5.816;2024-03-17T05:07:56;100642.47;;;3.61;100.00
68994;BME280;56054;50.968;5.816;2024-03-17T05:11:10;100644.00;;;3.59;100.00
68994;BME280;56054;50.968;5.816;2024-03-17T05:14:17;100643.84;;;3.57;100.00
68994;BME280;56054;50.968;5.816;2024-03-17T05:17:24;100635.50;;;3.60;100.00
68994;BME280;56054;50.968;5.816;2024-03-17T05:20:31;100650.34;;;3.73;100.00
68994;BME280;56054;50.968;5.816;2024-03-17T05:23:38;100642.09;;;3.67;100.00
68994;BME280;56054;50.968;5.816;2024-03-17T05:26:46;100643.38;;;3.61;100.00
68994;BME280;56054;50.968;5.816;2024-03-17T05:29:53;100632.19;;;3.61;100.00
68994;BME280;56054;50.968;5.816;2024-03-17T05:33:01;100636.59;;;3.72;100.00
68994;BME280;56054;50.968;5.816;2024-03-17T05:36:07;100633.53;;;3.76;100.00
68994;BME280;56054;50.968;5.816;2024-03-17T05:39:14;100642.78;;;3.74;100.00
68994;BME280;56054;50.968;5.816;2024-03-17T05:42:21;100632.66;;;3.76;100.00
68994;BME280;56054;50.968;5.816;2024-03-17T05:45:28;100635.47;;;3.79;100.00
68994;BME280;56054;50.968;5.816;2024-03-17T05:48:36;100633.28;;;3.73;100.00
68994;BME280;56054;50.968;5.816;2024-03-17T05:51:43;100627.63;;;3.77;100.00
68994;BME280;56054;50.968;5.816;2024-03-17T05:54:50;100635.63;;;3.80;100.00
68994;BME280;56054;50.968;5.816;2024-03-17T05:57:57;100641.56;;;3.90;100.00
68994;BME280;56054;50.968;5.816;2024-03-17T06:01:05;100634.06;;;3.82;100.00
68994;BME280;56054;50.968;5.816;2024-03-17T06:04:12;100627.63;;;3.77;100.00
68994;BME280;56054;50.968;5.816;2024-03-17T06:07:19;100636.13;;;3.76;100.00
68994;BME280;56054;50.968;5.816;2024-03-17T06:10:26;100640.13;;;3.83;100.00
68994;BME280;56054;50.968;5.816;2024-03-17T06:13:33;100636.63;;;3.82;100.00
68994;BME280;56054;50.968;5.816;2024-03-17T06:16:40;100629.72;;;3.81;100.00
68994;BME280;56054;50.968;5.816;2024-03-17T06:19:47;100638.50;;;3.94;100.00
68994;BME280;56054;50.968;5.816;2024-03-17T06:22:55;100626.16;;;4.00;100.00
68994;BME280;56054;50.968;5.816;2024-03-17T06:26:02;100614.34;;;4.02;100.00
68994;BME280;56054;50.968;5.816;2024-03-17T06:29:09;100615.13;;;4.01;100.00
68994;BME280;56054;50.968;5.816;2024-03-17T06:32:16;100607.84;;;4.16;100.00
68994;BME280;56054;50.968;5.816;2024-03-17T06:35:23;100623.34;;;3.97;100.00
68994;BME280;56054;50.968;5.816;2024-03-17T06:38:31;100620.69;;;4.05;100.00
68994;BME280;56054;50.968;5.816;2024-03-17T06:41:38;100617.22;;;4.05;100.00
68994;BME280;56054;50.968;5.816;2024-03-17T06:44:45;100619.53;;;4.12;100.00
68994;BME280;56054;50.968;5.816;2024-03-17T06:47:52;100635.97;;;4.14;100.00
68994;BME280;56054;50.968;5.816;2024-03-17T06:50:59;100632.25;;;4.11;100.00
68994;BME280;56054;50.968;5.816;2024-03-17T06:54:06;100639.34;;;4.23;100.00
68994;BME280;56054;50.968;5.816;2024-03-17T06:57:13;100635.41;;;4.27;100.00
68994;BME280;56054;50.968;5.816;2024-03-17T07:00:20;100636.06;;;4.35;100.00
68994;BME280;56054;50.968;5.816;2024-03-17T07:03:29;100637.75;;;4.44;100.00
68994;BME280;56054;50.968;5.816;2024-03-17T07:06:36;100640.72;;;4.59;100.00
68994;BME280;56054;50.968;5.816;2024-03-17T07:09:43;100630.69;;;4.62;100.00
68994;BME280;56054;50.968;5.816;2024-03-17T07:12:50;100635.72;;;4.71;100.00
68994;BME280;56054;50.968;5.816;2024-03-17T07:15:57;100645.13;;;4.81;100.00
68994;BME280;56054;50.968;5.816;2024-03-17T07:19:04;100640.72;;;4.90;100.00
68994;BME280;56054;50.968;5.816;2024-03-17T07:22:11;100637.38;;;4.91;100.00
68994;BME280;56054;50.968;5.816;2024-03-17T07:25:18;100636.47;;;5.11;100.00
68994;BME280;56054;50.968;5.816;2024-03-17T07:28:25;100637.09;;;5.19;100.00
68994;BME280;56054;50.968;5.816;2024-03-17T07:31:32;100638.09;;;5.31;100.00
68994;BME280;56054;50.968;5.816;2024-03-17T07:34:39;100629.09;;;5.26;100.00
68994;BME280;56054;50.968;5.816;2024-03-17T07:37:46;100635.78;;;5.34;100.00
68994;BME280;56054;50.968;5.816;2024-03-17T07:40:57;100640.66;;;5.41;100.00
68994;BME280;56054;50.968;5.816;2024-03-17T07:44:04;100634.47;;;5.49;100.00
68994;BME280;56054;50.968;5.816;2024-03-17T07:47:11;100634.94;;;5.66;100.00
68994;BME280;56054;50.968;5.816;2024-03-17T07:50:18;100624.03;;;5.80;100.00
68994;BME280;56054;50.968;5.816;2024-03-17T07:53:25;100602.59;;;5.91;100.00
68994;BME280;56054;50.968;5.816;2024-03-17T07:56:32;100609.06;;;5.96;100.00
68994;BME280;56054;50.968;5.816;2024-03-17T07:59:39;100614.44;;;6.10;100.00
68994;BME280;56054;50.968;5.816;2024-03-17T08:02:46;100620.84;;;6.15;100.00
68994;BME280;56054;50.968;5.816;2024-03-17T08:05:53;100615.53;;;6.35;100.00
68994;BME280;56054;50.968;5.816;2024-03-17T08:09:00;100607.06;;;6.48;100.00
68994;BME280;56054;50.968;5.816;2024-03-17T08:12:07;100610.91;;;6.53;100.00
68994;BME280;56054;50.968;5.816;2024-03-17T08:15:14;100600.56;;;6.53;100.00
68994;BME280;56054;50.968;5.816;2024-03-17T08:18:21;100615.53;;;6.57;100.00
68994;BME280;56054;50.968;5.816;2024-03-17T08:21:28;100596.91;;;6.61;100.00
68994;BME280;56054;50.968;5.816;2024-03-17T08:24:35;100600.97;;;6.70;100.00
68994;BME280;56054;50.968;5.816;2024-03-17T08:27:42;100611.00;;;6.77;100.00
68994;BME280;56054;50.968;5.816;2024-03-17T08:30:57;100606.31;;;6.95;100.00
68994;BME280;56054;50.968;5.816;2024-03-17T08:34:03;100613.31;;;7.07;100.00
68994;BME280;56054;50.968;5.816;2024-03-17T08:37:10;100615.00;;;7.19;100.00
68994;BME280;56054;50.968;5.816;2024-03-17T08:40:17;100614.69;;;7.38;100.00
68994;BME280;56054;50.968;5.816;2024-03-17T08:43:24;100609.19;;;7.45;100.00
68994;BME280;56054;50.968;5.816;2024-03-17T08:46:31;100608.63;;;7.49;100.00
68994;BME280;56054;50.968;5.816;2024-03-17T08:49:38;100605.69;;;7.56;100.00
68994;BME280;56054;50.968;5.816;2024-03-17T08:52:45;100598.28;;;7.61;100.00
68994;BME280;56054;50.968;5.816;2024-03-17T08:55:53;100597.81;;;7.66;100.00
68994;BME280;56054;50.968;5.816;2024-03-17T08:59:00;100605.22;;;7.74;100.00
68994;BME280;56054;50.968;5.816;2024-03-17T09:02:11;100603.19;;;7.69;100.00
68994;BME280;56054;50.968;5.816;2024-03-17T09:05:19;100601.63;;;7.83;100.00
68994;BME280;56054;50.968;5.816;2024-03-17T09:08:26;100597.53;;;7.87;100.00
68994;BME280;56054;50.968;5.816;2024-03-17T09:11:33;100597.53;;;7.87;100.00
68994;BME280;56054;50.968;5.816;2024-03-17T09:14:47;100593.38;;;8.01;100.00
68994;BME280;56054;50.968;5.816;2024-03-17T09:17:54;100597.38;;;8.09;100.00
68994;BME280;56054;50.968;5.816;2024-03-17T09:21:04;100596.47;;;8.20;100.00
68994;BME280;56054;50.968;5.816;2024-03-17T09:24:11;100587.66;;;8.30;100.00
68994;BME280;56054;50.968;5.816;2024-03-17T09:27:18;100596.31;;;8.42;100.00
68994;BME280;56054;50.968;5.816;2024-03-17T09:30:25;100601.69;;;8.33;100.00
68994;BME280;56054;50.968;5.816;2024-03-17T09:33:34;100602.38;;;8.43;100.00
68994;BME280;56054;50.968;5.816;2024-03-17T09:36:41;100598.31;;;8.46;100.00
68994;BME280;56054;50.968;5.816;2024-03-17T09:39:48;100603.50;;;8.46;100.00
68994;BME280;56054;50.968;5.816;2024-03-17T09:42:55;100597.34;;;8.57;100.00
68994;BME280;56054;50.968;5.816;2024-03-17T09:46:04;100600.78;;;8.70;100.00
68994;BME280;56054;50.968;5.816;2024-03-17T09:49:15;100598.63;;;8.76;100.00
68994;BME280;56054;50.968;5.816;2024-03-17T09:52:24;100593.44;;;8.76;100.00
68994;BME280;56054;50.968;5.816;2024-03-17T09:55:30;100589.41;;;8.93;100.00
68994;BME280;56054;50.968;5.816;2024-03-17T09:58:37;100599.97;;;8.96;100.00
68994;BME280;56054;50.968;5.816;2024-03-17T10:01:44;100601.09;;;9.13;100.00
68994;BME280;56054;50.968;5.816;2024-03-17T10:04:51;100604.75;;;9.03;100.00
68994;BME280;56054;50.968;5.816;2024-03-17T10:07:58;100608.44;;;9.07;100.00
68994;BME280;56054;50.968;5.816;2024-03-17T10:11:05;100595.31;;;9.17;100.00
68994;BME280;56054;50.968;5.816;2024-03-17T10:14:16;100606.66;;;9.06;100.00
68994;BME280;56054;50.968;5.816;2024-03-17T10:17:29;100606.22;;;8.99;100.00
68994;BME280;56054;50.968;5.816;2024-03-17T10:20:36;100603.75;;;9.01;100.00
68994;BME280;56054;50.968;5.816;2024-03-17T10:23:43;100591.69;;;9.02;100.00
68994;BME280;56054;50.968;5.816;2024-03-17T10:26:52;100598.31;;;9.10;100.00
68994;BME280;56054;50.968;5.816;2024-03-17T10:29:59;100596.09;;;9.16;100.00
68994;BME280;56054;50.968;5.816;2024-03-17T10:33:07;100596.53;;;9.22;100.00
68994;BME280;56054;50.968;5.816;2024-03-17T10:36:17;100597.59;;;9.26;100.00
68994;BME280;56054;50.968;5.816;2024-03-17T10:39:26;100598.91;;;9.46;100.00
68994;BME280;56054;50.968;5.816;2024-03-17T10:42:33;100596.63;;;9.37;100.00
68994;BME280;56054;50.968;5.816;2024-03-17T10:45:40;100589.34;;;9.58;100.00
68994;BME280;56054;50.968;5.816;2024-03-17T10:48:48;100594.53;;;9.58;100.00
68994;BME280;56054;50.968;5.816;2024-03-17T10:51:58;100593.81;;;9.74;100.00
68994;BME280;56054;50.968;5.816;2024-03-17T10:55:08;100597.41;;;9.76;100.00
68994;BME280;56054;50.968;5.816;2024-03-17T11:01:22;100585.53;;;9.93;100.00
68994;BME280;56054;50.968;5.816;2024-03-17T11:04:28;100589.09;;;9.95;100.00
68994;BME280;56054;50.968;5.816;2024-03-17T11:07:35;100581.75;;;9.88;100.00
68994;BME280;56054;50.968;5.816;2024-03-17T11:10:51;100586.50;;;9.95;100.00
68994;BME280;56054;50.968;5.816;2024-03-17T11:14:19;100589.09;;;9.95;100.00
68994;BME280;56054;50.968;5.816;2024-03-17T11:17:26;100591.47;;;10.05;100.00
68994;BME280;56054;50.968;5.816;2024-03-17T11:20:34;100585.09;;;10.00;100.00
68994;BME280;56054;50.968;5.816;2024-03-17T11:23:42;100584.88;;;9.97;100.00
68994;BME280;56054;50.968;5.816;2024-03-17T11:26:49;100593.16;;;10.04;100.00
68994;BME280;56054;50.968;5.816;2024-03-17T11:30:41;100584.47;;;10.04;100.00
68994;BME280;56054;50.968;5.816;2024-03-17T11:33:47;100592.91;;;10.00;100.00
68994;BME280;56054;50.968;5.816;2024-03-17T11:36:55;100581.22;;;10.21;100.00
68994;BME280;56054;50.968;5.816;2024-03-17T11:40:02;100588.97;;;10.06;100.00
68994;BME280;56054;50.968;5.816;2024-03-17T11:43:29;100580.75;;;10.14;100.00
68994;BME280;56054;50.968;5.816;2024-03-17T11:46:36;100575.06;;;10.19;100.00
68994;BME280;56054;50.968;5.816;2024-03-17T11:49:44;100568.25;;;10.21;100.00
68994;BME280;56054;50.968;5.816;2024-03-17T11:52:58;100570.50;;;10.02;100.00
68994;BME280;56054;50.968;5.816;2024-03-17T11:56:04;100568.66;;;10.14;100.00
68994;BME280;56054;50.968;5.816;2024-03-17T11:59:11;100562.41;;;10.11;100.00
68994;BME280;56054;50.968;5.816;2024-03-17T12:02:20;100556.25;;;10.23;100.00
68994;BME280;56054;50.968;5.816;2024-03-17T12:05:27;100545.47;;;10.31;100.00
68994;BME280;56054;50.968;5.816;2024-03-17T12:08:34;100541.03;;;10.43;100.00
68994;BME280;56054;50.968;5.816;2024-03-17T12:11:41;100537.25;;;10.38;100.00
68994;BME280;56054;50.968;5.816;2024-03-17T12:14:50;100524.44;;;10.41;100.00
68994;BME280;56054;50.968;5.816;2024-03-17T12:17:57;100520.19;;;10.41;100.00
68994;BME280;56054;50.968;5.816;2024-03-17T12:21:04;100509.41;;;10.50;100.00
68994;BME280;56054;50.968;5.816;2024-03-17T12:24:22;100510.50;;;10.39;99.42
68994;BME280;56054;50.968;5.816;2024-03-17T12:27:29;100511.19;;;10.36;98.91
68994;BME280;56054;50.968;5.816;2024-03-17T12:30:36;100503.78;;;10.42;98.63
68994;BME280;56054;50.968;5.816;2024-03-17T12:33:43;100505.75;;;10.46;98.02
68994;BME280;56054;50.968;5.816;2024-03-17T12:36:51;100507.00;;;10.53;98.96
68994;BME280;56054;50.968;5.816;2024-03-17T12:39:57;100497.59;;;10.55;98.69
68994;BME280;56054;50.968;5.816;2024-03-17T12:43:04;100502.34;;;10.62;98.01
68994;BME280;56054;50.968;5.816;2024-03-17T12:46:13;100504.06;;;10.62;96.77
68994;BME280;56054;50.968;5.816;2024-03-17T12:49:20;100503.53;;;10.67;97.19
68994;BME280;56054;50.968;5.816;2024-03-17T12:55:35;100492.94;;;10.94;93.36
68994;BME280;56054;50.968;5.816;2024-03-17T12:58:42;100507.78;;;11.26;91.39
68994;BME280;56054;50.968;5.816;2024-03-17T13:01:49;100502.34;;;11.22;90.58
68994;BME280;56054;50.968;5.816;2024-03-17T13:05:18;100492.72;;;11.21;89.44
68994;BME280;56054;50.968;5.816;2024-03-17T13:08:26;100490.28;;;11.24;89.37
68994;BME280;56054;50.968;5.816;2024-03-17T13:11:32;100482.53;;;11.40;88.25
68994;BME280;56054;50.968;5.816;2024-03-17T13:14:39;100476.88;;;11.47;85.51
68994;BME280;56054;50.968;5.816;2024-03-17T13:17:46;100471.25;;;11.87;85.34
68994;BME280;56054;50.968;5.816;2024-03-17T13:20:53;100474.00;;;12.56;85.94
68994;BME280;56054;50.968;5.816;2024-03-17T13:24:00;100474.50;;;12.32;81.88
68994;BME280;56054;50.968;5.816;2024-03-17T13:27:07;100464.59;;;12.09;83.45
68994;BME280;56054;50.968;5.816;2024-03-17T13:30:16;100451.22;;;12.19;84.55
68994;BME280;56054;50.968;5.816;2024-03-17T13:33:23;100456.91;;;12.28;84.73
68994;BME280;56054;50.968;5.816;2024-03-17T13:36:30;100456.28;;;12.16;82.67
68994;BME280;56054;50.968;5.816;2024-03-17T13:39:37;100453.63;;;12.14;82.86
68994;BME280;56054;50.968;5.816;2024-03-17T13:42:54;100458.88;;;11.99;82.37
68994;BME280;56054;50.968;5.816;2024-03-17T13:46:01;100448.31;;;11.96;84.89
68994;BME280;56054;50.968;5.816;2024-03-17T13:49:08;100429.09;;;12.11;85.41
68994;BME280;56054;50.968;5.816;2024-03-17T13:52:15;100422.72;;;11.88;84.62
68994;BME280;56054;50.968;5.816;2024-03-17T13:55:24;100432.53;;;11.93;84.84
68994;BME280;56054;50.968;5.816;2024-03-17T13:58:31;100419.09;;;12.02;84.99
68994;BME280;56054;50.968;5.816;2024-03-17T14:01:38;100420.31;;;12.25;85.52
68994;BME280;56054;50.968;5.816;2024-03-17T14:04:45;100412.41;;;12.24;84.35
68994;BME280;56054;50.968;5.816;2024-03-17T14:07:53;100421.28;;;12.27;82.24
68994;BME280;56054;50.968;5.816;2024-03-17T14:11:01;100410.34;;;12.34;81.61
68994;BME280;56054;50.968;5.816;2024-03-17T14:14:07;100404.53;;;12.22;82.69
68994;BME280;56054;50.968;5.816;2024-03-17T14:17:14;100394.09;;;12.22;83.30
68994;BME280;56054;50.968;5.816;2024-03-17T14:20:21;100406.22;;;12.21;82.38
68994;BME280;56054;50.968;5.816;2024-03-17T14:23:28;100397.72;;;11.91;82.32
68994;BME280;56054;50.968;5.816;2024-03-17T14:26:35;100397.22;;;11.98;82.53
68994;BME280;56054;50.968;5.816;2024-03-17T14:29:45;100392.81;;;11.81;82.51
68994;BME280;56054;50.968;5.816;2024-03-17T14:32:59;100386.53;;;12.10;81.92
68994;BME280;56054;50.968;5.816;2024-03-17T14:36:07;100374.28;;;12.26;81.36
68994;BME280;56054;50.968;5.816;2024-03-17T14:39:13;100377.13;;;12.30;81.70
68994;BME280;56054;50.968;5.816;2024-03-17T14:42:21;100370.72;;;12.24;82.07
68994;BME280;56054;50.968;5.816;2024-03-17T14:45:27;100380.59;;;12.47;80.05
68994;BME280;56054;50.968;5.816;2024-03-17T14:48:34;100371.09;;;12.31;79.41
68994;BME280;56054;50.968;5.816;2024-03-17T14:51:41;100370.47;;;12.19;79.45
68994;BME280;56054;50.968;5.816;2024-03-17T14:54:48;100365.16;;;11.99;80.04
68994;BME280;56054;50.968;5.816;2024-03-17T14:57:55;100369.38;;;11.81;80.27
68994;BME280;56054;50.968;5.816;2024-03-17T15:01:03;100365.91;;;11.81;79.83
68994;BME280;56054;50.968;5.816;2024-03-17T15:04:09;100372.50;;;11.90;80.43
68994;BME280;56054;50.968;5.816;2024-03-17T15:07:16;100360.13;;;12.03;79.00
68994;BME280;56054;50.968;5.816;2024-03-17T15:10:23;100358.56;;;11.90;80.07
68994;BME280;56054;50.968;5.816;2024-03-17T15:13:30;100353.72;;;12.14;81.09
68994;BME280;56054;50.968;5.816;2024-03-17T15:16:37;100346.13;;;12.01;80.13
68994;BME280;56054;50.968;5.816;2024-03-17T15:19:47;100343.75;;;12.05;81.18
68994;BME280;56054;50.968;5.816;2024-03-17T15:22:54;100339.28;;;12.03;80.71
68994;BME280;56054;50.968;5.816;2024-03-17T15:26:05;100343.13;;;11.93;80.77
68994;BME280;56054;50.968;5.816;2024-03-17T15:29:12;100332.84;;;12.12;82.40
68994;BME280;56054;50.968;5.816;2024-03-17T15:32:19;100329.84;;;12.05;80.33
68994;BME280;56054;50.968;5.816;2024-03-17T15:35:26;100324.78;;;12.08;80.95
68994;BME280;56054;50.968;5.816;2024-03-17T15:38:35;100314.31;;;11.90;80.79
68994;BME280;56054;50.968;5.816;2024-03-17T15:41:41;100312.03;;;11.79;80.67
68994;BME280;56054;50.968;5.816;2024-03-17T15:44:48;100315.22;;;11.90;80.68
68994;BME280;56054;50.968;5.816;2024-03-17T15:47:55;100311.06;;;11.94;80.79
68994;BME280;56054;50.968;5.816;2024-03-17T15:51:03;100308.59;;;11.97;81.49
68994;BME280;56054;50.968;5.816;2024-03-17T15:54:09;100304.97;;;11.77;81.43
68994;BME280;56054;50.968;5.816;2024-03-17T15:57:16;100302.50;;;11.80;81.86
68994;BME280;56054;50.968;5.816;2024-03-17T16:00:23;100303.75;;;11.87;82.40
68994;BME280;56054;50.968;5.816;2024-03-17T16:03:31;100302.13;;;11.72;83.38
68994;BME280;56054;50.968;5.816;2024-03-17T16:06:39;100296.16;;;11.75;81.66
68994;BME280;56054;50.968;5.816;2024-03-17T16:09:47;100290.53;;;11.66;81.39
68994;BME280;56054;50.968;5.816;2024-03-17T16:12:54;100288.22;;;11.72;81.61
68994;BME280;56054;50.968;5.816;2024-03-17T16:16:00;100294.69;;;11.80;82.69
68994;BME280;56054;50.968;5.816;2024-03-17T16:19:07;100294.00;;;11.83;81.95
68994;BME280;56054;50.968;5.816;2024-03-17T16:22:14;100283.25;;;11.76;83.37
68994;BME280;56054;50.968;5.816;2024-03-17T16:25:21;100285.63;;;11.72;83.44
68994;BME280;56054;50.968;5.816;2024-03-17T16:28:28;100283.84;;;11.71;83.92